createdAt,value
2019-04-30T00:01:36.444Z,18.67
2019-04-30T00:04:17.723Z,19.60
2019-04-30T00:06:46.775Z,19.40
2019-04-30T00:09:19.248Z,22.10
2019-04-30T00:11:50.594Z,21.60
2019-04-30T00:14:19.110Z,20.47
2019-04-30T00:16:48.174Z,20.53
2019-04-30T00:19:19.685Z,21.17
2019-04-30T00:21:54.545Z,19.83
2019-04-30T00:24:18.896Z,21.53
2019-04-30T00:26:52.302Z,21.87
2019-04-30T00:29:26.517Z,22.13
2019-04-30T00:31:49.252Z,21.87
2019-04-30T00:34:18.288Z,22.77
2019-04-30T00:36:47.304Z,21.23
2019-04-30T00:39:16.789Z,21.30
2019-04-30T00:41:47.383Z,22.27
2019-04-30T00:44:19.978Z,21.90
2019-04-30T00:46:47.996Z,22.13
2019-04-30T00:49:23.002Z,23.03
2019-04-30T00:51:49.814Z,23.27
2019-04-30T00:54:22.550Z,23.50
2019-04-30T00:56:49.612Z,24.10
2019-04-30T00:59:18.687Z,23.03
2019-04-30T01:02:03.448Z,23.40
2019-04-30T01:04:39.121Z,24.37
2019-04-30T01:07:08.800Z,22.20
2019-04-30T01:09:39.617Z,24.80
2019-04-30T01:12:08.844Z,25.50
2019-04-30T01:14:38.612Z,24.63
2019-04-30T01:17:11.922Z,24.97
2019-04-30T01:19:39.604Z,25.97
2019-04-30T01:22:09.099Z,24.83
2019-04-30T01:24:38.674Z,24.60
2019-04-30T01:27:10.477Z,27.03
2019-04-30T01:29:44.159Z,25.33
2019-04-30T01:32:10.492Z,26.00
2019-04-30T01:34:44.256Z,25.33
2019-04-30T01:37:11.256Z,27.50
2019-04-30T01:39:40.326Z,26.43
2019-04-30T01:42:11.379Z,26.90
2019-04-30T01:44:43.476Z,27.20
2019-04-30T01:47:11.014Z,25.37
2019-04-30T01:49:42.682Z,25.93
2019-04-30T01:52:10.904Z,26.27
2019-04-30T01:54:39.942Z,26.33
2019-04-30T01:57:26.568Z,25.17
2019-04-30T02:00:05.471Z,25.50
2019-04-30T02:02:36.213Z,24.70
2019-04-30T02:05:05.717Z,25.00
2019-04-30T02:07:34.835Z,25.80
2019-04-30T02:10:03.975Z,25.83
2019-04-30T02:12:33.107Z,24.97
2019-04-30T02:15:02.193Z,27.23
2019-04-30T02:17:31.193Z,25.70
2019-04-30T02:20:00.234Z,25.93
2019-04-30T02:22:31.253Z,23.87
2019-04-30T02:25:00.058Z,25.30
2019-04-30T02:27:29.539Z,25.10
2019-04-30T02:29:59.397Z,25.93
2019-04-30T02:32:30.483Z,25.17
2019-04-30T02:35:19.419Z,23.80
2019-04-30T02:38:13.344Z,25.03
2019-04-30T02:40:42.789Z,24.00
2019-04-30T02:43:11.857Z,25.13
2019-04-30T02:45:41.257Z,26.03
2019-04-30T02:48:11.787Z,25.27
2019-04-30T02:50:41.117Z,24.60
2019-04-30T02:54:09.820Z,26.27
2019-04-30T02:56:40.131Z,24.90
2019-04-30T02:59:10.373Z,24.53
2019-04-30T03:01:40.379Z,26.07
2019-04-30T03:04:10.194Z,26.30
2019-04-30T03:06:40.223Z,25.77
2019-04-30T03:09:10.654Z,26.97
2019-04-30T03:11:40.764Z,26.03
2019-04-30T03:14:10.838Z,26.93
2019-04-30T03:16:52.620Z,26.60
2019-04-30T03:19:36.836Z,28.23
2019-04-30T03:22:13.179Z,27.10
2019-04-30T03:24:42.813Z,26.07
2019-04-30T03:27:12.368Z,26.30
2019-04-30T03:29:41.439Z,27.73
2019-04-30T03:32:13.297Z,26.13
2019-04-30T03:34:42.562Z,26.03
2019-04-30T03:37:12.038Z,25.47
2019-04-30T03:39:41.138Z,26.57
2019-04-30T03:42:10.281Z,26.30
2019-04-30T03:44:40.246Z,27.50
2019-04-30T03:47:10.897Z,27.77
2019-04-30T03:49:40.503Z,27.37
2019-04-30T03:52:13.146Z,27.23
2019-04-30T03:54:40.983Z,26.80
2019-04-30T03:57:10.921Z,27.80
2019-04-30T03:59:40.196Z,26.87
2019-04-30T04:02:20.781Z,25.87
2019-04-30T04:05:05.107Z,26.20
2019-04-30T04:07:42.572Z,26.47
2019-04-30T04:10:21.948Z,28.80
2019-04-30T04:12:51.006Z,27.37
2019-04-30T04:15:20.148Z,28.93
2019-04-30T04:17:50.343Z,28.50
2019-04-30T04:20:20.263Z,28.57
2019-04-30T04:22:49.870Z,27.07
2019-04-30T04:25:20.501Z,29.70
2019-04-30T04:27:50.840Z,27.87
2019-04-30T04:30:23.199Z,27.77
2019-04-30T04:32:52.259Z,28.73
2019-04-30T04:35:21.341Z,28.20
2019-04-30T04:37:50.447Z,27.53
2019-04-30T04:40:21.065Z,28.90
2019-04-30T04:42:50.459Z,28.43
2019-04-30T04:45:20.008Z,28.07
2019-04-30T04:47:50.314Z,28.70
2019-04-30T04:50:20.357Z,29.63
2019-04-30T04:52:49.815Z,28.93
2019-04-30T04:55:21.746Z,30.00
2019-04-30T04:57:50.198Z,28.33
2019-04-30T05:00:19.631Z,26.73
2019-04-30T05:03:09.456Z,27.07
2019-04-30T05:05:39.822Z,29.00
2019-04-30T05:08:09.137Z,28.53
2019-04-30T05:10:39.222Z,28.67
2019-04-30T05:13:15.898Z,28.87
2019-04-30T05:15:45.147Z,27.03
2019-04-30T05:18:14.387Z,27.47
2019-04-30T05:20:43.534Z,28.90
2019-04-30T05:23:12.706Z,27.63
2019-04-30T05:25:41.924Z,26.47
2019-04-30T05:28:11.049Z,24.93
2019-04-30T05:30:40.335Z,26.33
2019-04-30T05:33:09.579Z,26.37
2019-04-30T05:35:38.988Z,24.33
2019-04-30T05:38:09.312Z,25.33
2019-04-30T05:40:39.836Z,25.90
2019-04-30T05:43:11.336Z,24.83
2019-04-30T05:45:40.570Z,24.67
2019-04-30T05:48:09.761Z,24.70
2019-04-30T05:50:39.202Z,24.40
2019-04-30T05:53:08.987Z,23.00
2019-04-30T05:55:39.505Z,24.13
2019-04-30T05:58:09.392Z,21.67
2019-04-30T06:00:40.063Z,23.03
2019-04-30T06:03:09.550Z,21.87
2019-04-30T06:05:39.434Z,22.57
2019-04-30T06:08:09.306Z,23.27
2019-04-30T06:10:44.027Z,25.63
2019-04-30T06:13:28.626Z,20.93
2019-04-30T06:16:06.649Z,21.97
2019-04-30T06:18:35.804Z,20.50
2019-04-30T06:21:04.946Z,19.70
2019-04-30T06:23:34.220Z,18.53
2019-04-30T06:26:09.917Z,21.30
2019-04-30T06:28:34.631Z,21.00
2019-04-30T06:31:03.848Z,21.57
2019-04-30T06:33:33.089Z,20.33
2019-04-30T06:36:02.262Z,20.63
2019-04-30T06:38:31.568Z,19.50
2019-04-30T06:41:00.853Z,21.33
2019-04-30T06:43:30.086Z,21.30
2019-04-30T06:45:59.502Z,20.20
2019-04-30T06:48:29.552Z,22.80
2019-04-30T06:50:59.220Z,21.60
2019-04-30T06:53:29.239Z,21.17
2019-04-30T06:55:58.994Z,20.57
2019-04-30T06:58:29.203Z,22.10
2019-04-30T07:00:59.601Z,20.03
2019-04-30T07:03:29.134Z,20.10
2019-04-30T07:05:59.238Z,20.27
2019-04-30T07:08:55.557Z,21.17
2019-04-30T07:11:29.301Z,20.43
2019-04-30T07:13:59.986Z,20.93
2019-04-30T07:16:29.959Z,20.07
2019-04-30T07:18:59.240Z,20.10
2019-04-30T07:21:29.475Z,20.63
2019-04-30T07:23:59.678Z,19.87
2019-04-30T07:26:29.112Z,20.33
2019-04-30T07:29:02.183Z,21.90
2019-04-30T07:31:29.722Z,20.10
2019-04-30T07:33:59.556Z,20.40
2019-04-30T07:36:43.292Z,20.43
2019-04-30T07:39:00.149Z,21.83
2019-04-30T07:41:31.210Z,22.37
2019-04-30T07:44:00.322Z,21.53
2019-04-30T07:46:30.152Z,20.03
2019-04-30T07:49:00.546Z,20.10
2019-04-30T07:51:32.203Z,19.70
2019-04-30T07:54:00.725Z,20.90
2019-04-30T07:56:37.302Z,19.40
2019-04-30T07:59:02.885Z,18.80
2019-04-30T08:01:34.323Z,19.10
2019-04-30T08:04:16.380Z,21.87
2019-04-30T08:06:46.703Z,19.23
2019-04-30T08:09:16.340Z,20.10
2019-04-30T08:11:49.157Z,20.03
2019-04-30T08:14:21.151Z,19.13
2019-04-30T08:16:51.075Z,20.23
2019-04-30T08:19:20.394Z,18.83
2019-04-30T08:21:49.593Z,19.87
2019-04-30T08:24:19.362Z,19.33
2019-04-30T08:26:49.384Z,18.80
2019-04-30T08:29:19.491Z,19.93
2019-04-30T08:31:49.042Z,20.40
2019-04-30T08:34:20.083Z,21.33
2019-04-30T08:36:49.712Z,20.53
2019-04-30T08:39:19.735Z,19.70
2019-04-30T08:41:49.362Z,20.63
2019-04-30T08:44:20.815Z,20.50
2019-04-30T08:46:49.405Z,20.37
2019-04-30T08:49:19.268Z,20.20
2019-04-30T08:51:49.737Z,19.35
2019-04-30T08:54:20.033Z,18.90
2019-04-30T08:56:50.390Z,19.48
2019-04-30T08:59:20.956Z,19.77
2019-04-30T09:01:50.391Z,17.85
2019-04-30T09:04:20.197Z,18.20
2019-04-30T09:06:49.759Z,17.80
2019-04-30T09:09:20.809Z,18.73
2019-04-30T09:11:55.375Z,17.55
2019-04-30T09:14:20.837Z,18.02
2019-04-30T09:16:51.335Z,18.55
2019-04-30T09:19:21.251Z,19.00
2019-04-30T09:21:50.702Z,18.98
2019-04-30T09:24:19.895Z,18.45
2019-04-30T09:26:49.380Z,20.43
2019-04-30T09:29:19.132Z,17.75
2019-04-30T09:31:49.329Z,17.80
2019-04-30T09:34:21.000Z,18.32
2019-04-30T09:36:49.676Z,18.27
2019-04-30T09:39:19.936Z,19.00
2019-04-30T09:41:50.085Z,19.45
2019-04-30T09:44:19.530Z,19.10
2019-04-30T09:46:48.985Z,17.35
2019-04-30T09:49:19.701Z,19.92
2019-04-30T09:51:49.817Z,18.17
2019-04-30T09:54:20.211Z,16.97
2019-04-30T09:56:52.613Z,18.07
2019-04-30T09:59:20.532Z,17.52
2019-04-30T10:01:49.749Z,18.05
2019-04-30T10:04:20.445Z,18.67
2019-04-30T10:06:51.233Z,17.98
2019-04-30T10:09:20.488Z,17.62
2019-04-30T10:12:14.896Z,18.48
2019-04-30T10:14:44.268Z,17.37
2019-04-30T10:17:35.340Z,17.70
2019-04-30T10:20:05.691Z,16.20
2019-04-30T10:22:34.837Z,16.50
2019-04-30T10:25:10.131Z,16.60
2019-04-30T10:27:39.319Z,17.50
2019-04-30T10:30:09.335Z,17.62
2019-04-30T10:32:38.933Z,17.25
2019-04-30T10:35:08.515Z,18.35
2019-04-30T10:37:38.737Z,16.87
2019-04-30T10:40:10.080Z,17.35
2019-04-30T10:42:39.316Z,17.30
2019-04-30T10:45:09.758Z,16.00
2019-04-30T10:47:39.665Z,16.87
2019-04-30T10:50:09.937Z,17.73
2019-04-30T10:52:40.091Z,16.55
2019-04-30T10:55:14.318Z,15.83
2019-04-30T10:57:46.044Z,17.62
2019-04-30T11:00:15.544Z,16.80
2019-04-30T11:02:51.111Z,15.85
2019-04-30T11:05:23.648Z,16.95
2019-04-30T11:07:53.192Z,18.00
2019-04-30T11:10:25.364Z,16.62
2019-04-30T11:12:55.141Z,16.10
2019-04-30T11:15:26.329Z,15.68
2019-04-30T11:17:56.671Z,15.43
2019-04-30T11:20:26.381Z,15.28
2019-04-30T11:22:56.502Z,16.52
2019-04-30T11:25:27.564Z,17.52
2019-04-30T11:27:58.354Z,16.07
2019-04-30T11:30:29.672Z,16.10
2019-04-30T11:33:00.268Z,16.75
2019-04-30T11:35:29.824Z,17.00
2019-04-30T11:38:00.339Z,16.48
2019-04-30T11:40:37.181Z,15.00
2019-04-30T11:43:04.123Z,17.27
2019-04-30T11:46:08.666Z,16.77
2019-04-30T11:48:38.792Z,15.30
2019-04-30T11:51:09.448Z,16.20
2019-04-30T11:53:39.573Z,15.10
2019-04-30T11:56:12.305Z,14.47
2019-04-30T11:58:43.689Z,14.30
2019-04-30T12:01:14.936Z,15.43
2019-04-30T12:03:44.604Z,15.23
2019-04-30T12:06:14.291Z,14.90
2019-04-30T12:09:16.276Z,14.63
2019-04-30T12:11:50.551Z,16.43
2019-04-30T12:14:20.283Z,14.97
2019-04-30T12:17:05.837Z,15.60
2019-04-30T12:19:31.095Z,15.63
2019-04-30T12:22:00.571Z,14.97
2019-04-30T12:24:30.429Z,13.83
2019-04-30T12:27:00.008Z,12.80
2019-04-30T12:29:29.390Z,13.90
2019-04-30T12:31:58.812Z,13.80
2019-04-30T12:34:28.525Z,15.03
2019-04-30T12:36:59.635Z,14.03
2019-04-30T12:39:30.092Z,13.80
2019-04-30T12:42:01.983Z,13.73
2019-04-30T12:44:30.841Z,13.80
2019-04-30T12:47:00.211Z,12.63
2019-04-30T12:49:46.223Z,12.50
2019-04-30T12:52:20.510Z,11.90
2019-04-30T12:54:52.215Z,11.53
2019-04-30T12:57:34.473Z,12.27
2019-04-30T13:00:04.546Z,13.23
2019-04-30T13:02:34.726Z,12.77
2019-04-30T13:05:04.249Z,11.63
2019-04-30T13:07:34.600Z,12.60
2019-04-30T13:10:04.623Z,12.50
2019-04-30T13:12:35.254Z,13.07
2019-04-30T13:15:05.504Z,13.63
2019-04-30T13:17:34.864Z,14.53
2019-04-30T13:20:03.989Z,13.33
2019-04-30T13:22:33.332Z,13.73
2019-04-30T13:25:02.601Z,13.13
2019-04-30T13:27:34.716Z,14.23
2019-04-30T13:30:12.965Z,12.10
2019-04-30T13:32:55.299Z,12.43
2019-04-30T13:35:24.605Z,12.23
2019-04-30T13:37:58.933Z,13.63
2019-04-30T13:40:41.381Z,12.87
2019-04-30T13:43:10.861Z,12.73
2019-04-30T13:45:40.027Z,13.27
2019-04-30T13:48:09.211Z,11.83
2019-04-30T13:50:39.163Z,12.60
2019-04-30T13:53:09.777Z,13.27
2019-04-30T13:55:45.498Z,12.53
2019-04-30T13:58:09.904Z,12.20
2019-04-30T14:00:39.790Z,12.70
2019-04-30T14:03:21.365Z,11.67
2019-04-30T14:05:51.533Z,11.90
2019-04-30T14:08:29.255Z,12.90
2019-04-30T14:10:59.165Z,13.30
2019-04-30T14:13:28.612Z,12.20
2019-04-30T14:15:57.731Z,12.13
2019-04-30T14:18:30.759Z,11.80
2019-04-30T14:21:00.758Z,12.17
2019-04-30T14:23:28.791Z,12.87
2019-04-30T14:26:00.864Z,12.77
2019-04-30T14:28:29.281Z,12.63
2019-04-30T14:30:58.693Z,11.40
2019-04-30T14:33:29.353Z,11.63
2019-04-30T14:36:00.744Z,12.17
2019-04-30T14:38:30.049Z,12.13
2019-04-30T14:41:00.685Z,12.50
2019-04-30T14:43:42.329Z,12.90
2019-04-30T14:46:33.377Z,13.37
2019-04-30T14:49:41.070Z,13.03
2019-04-30T14:52:10.916Z,12.63
2019-04-30T14:54:55.370Z,12.80
2019-04-30T14:57:55.912Z,13.33
2019-04-30T15:00:39.608Z,13.33
2019-04-30T15:03:21.846Z,12.90
2019-04-30T15:05:51.843Z,13.50
2019-04-30T15:08:21.482Z,12.60
2019-04-30T15:10:51.258Z,12.80
2019-04-30T15:13:20.700Z,12.43
2019-04-30T15:15:50.417Z,12.33
2019-04-30T15:18:20.163Z,12.23
2019-04-30T15:20:49.940Z,11.70
2019-04-30T15:23:39.884Z,13.70
2019-04-30T15:26:21.619Z,12.03
2019-04-30T15:28:41.503Z,13.13
2019-04-30T15:31:11.133Z,11.87
2019-04-30T15:34:02.220Z,12.90
2019-04-30T15:36:22.620Z,11.30
2019-04-30T15:39:20.120Z,12.57
2019-04-30T15:41:49.889Z,11.60
2019-04-30T15:44:19.500Z,12.80
2019-04-30T15:46:54.703Z,11.10
2019-04-30T15:49:23.974Z,11.30
2019-04-30T15:51:53.477Z,10.83
2019-04-30T15:54:23.081Z,10.70
2019-04-30T15:56:52.405Z,11.57
2019-04-30T15:59:40.784Z,11.33
2019-04-30T16:02:28.746Z,12.30
2019-04-30T16:05:30.235Z,11.77
2019-04-30T16:08:19.111Z,12.90
2019-04-30T16:11:15.231Z,11.87
2019-04-30T16:14:18.662Z,12.00
2019-04-30T16:17:10.737Z,10.37
2019-04-30T16:19:41.173Z,11.80
2019-04-30T16:22:11.014Z,10.57
2019-04-30T16:24:43.784Z,11.40
2019-04-30T16:27:14.667Z,11.70
2019-04-30T16:29:45.509Z,12.47
2019-04-30T16:32:14.843Z,10.57
2019-04-30T16:34:44.846Z,10.73
2019-04-30T16:37:19.937Z,10.77
2019-04-30T16:39:49.536Z,10.70
2019-04-30T16:42:21.112Z,10.43
2019-04-30T16:44:53.913Z,10.73
2019-04-30T16:47:24.216Z,10.97
2019-04-30T16:49:53.673Z,11.00
2019-04-30T16:52:23.353Z,10.33
2019-04-30T16:54:55.035Z,12.27
2019-04-30T16:57:24.559Z,15.53
2019-04-30T16:59:55.491Z,13.63
2019-04-30T17:02:29.194Z,12.70
2019-04-30T17:05:22.866Z,17.47
2019-04-30T17:08:05.950Z,20.20
2019-04-30T17:11:00.656Z,21.23
2019-04-30T17:13:43.248Z,19.93
2019-04-30T17:16:15.889Z,20.80
2019-04-30T17:18:45.043Z,21.47
2019-04-30T17:21:14.195Z,21.20
2019-04-30T17:23:43.633Z,21.63
2019-04-30T17:26:13.123Z,20.77
2019-04-30T17:28:46.010Z,21.80
2019-04-30T17:31:15.357Z,21.70
2019-04-30T17:33:51.693Z,21.50
2019-04-30T17:36:29.784Z,21.90
2019-04-30T17:39:11.381Z,21.37
2019-04-30T17:41:56.110Z,22.00
2019-04-30T17:44:25.905Z,22.40
2019-04-30T17:47:00.103Z,22.17
2019-04-30T17:49:29.614Z,21.70
2019-04-30T17:51:59.283Z,21.70
2019-04-30T17:54:28.525Z,21.90
2019-04-30T17:56:57.939Z,22.17
2019-04-30T17:59:27.436Z,21.57
2019-04-30T18:02:01.593Z,21.37
2019-04-30T18:04:30.952Z,21.83
2019-04-30T18:07:00.500Z,22.77
2019-04-30T18:09:32.439Z,22.97
2019-04-30T18:12:02.027Z,21.47
2019-04-30T18:14:31.335Z,21.53
2019-04-30T18:17:00.588Z,22.00
2019-04-30T18:19:49.738Z,20.97
2019-04-30T18:22:42.868Z,21.93
2019-04-30T18:25:43.533Z,21.90
2019-04-30T18:28:12.752Z,21.00
2019-04-30T18:30:42.376Z,23.50
2019-04-30T18:33:11.656Z,23.70
2019-04-30T18:35:40.875Z,23.20
2019-04-30T18:38:10.105Z,25.60
2019-04-30T18:44:19.699Z,22.53
2019-04-30T18:46:49.128Z,22.93
2019-04-30T18:49:18.802Z,21.73
2019-04-30T18:51:49.235Z,23.20
2019-04-30T18:54:20.904Z,21.13
2019-04-30T18:56:49.285Z,22.07
2019-04-30T18:59:19.627Z,22.70
2019-04-30T19:01:48.823Z,23.27
2019-04-30T19:04:18.916Z,22.63
2019-04-30T19:06:48.394Z,23.17
2019-04-30T19:09:42.515Z,27.03
2019-04-30T19:12:39.681Z,23.27
2019-04-30T19:15:41.296Z,21.63
2019-04-30T19:18:16.169Z,22.47
2019-04-30T19:20:49.582Z,22.97
2019-04-30T19:23:19.165Z,22.30
2019-04-30T19:25:48.627Z,23.50
2019-04-30T19:28:18.874Z,22.23
2019-04-30T19:30:55.883Z,22.77
2019-04-30T19:33:19.065Z,22.93
2019-04-30T19:35:50.315Z,23.23
2019-04-30T19:38:18.967Z,22.43
2019-04-30T19:40:49.364Z,23.53
2019-04-30T19:43:18.582Z,23.73
2019-04-30T19:45:49.012Z,22.77
2019-04-30T19:48:18.741Z,22.83
2019-04-30T19:50:48.889Z,23.40
2019-04-30T19:53:22.238Z,23.60
2019-04-30T19:55:51.691Z,22.97
2019-04-30T19:58:29.553Z,22.87
2019-04-30T20:00:51.764Z,21.77
2019-04-30T20:03:20.901Z,22.70
2019-04-30T20:05:50.173Z,24.17
2019-04-30T20:08:19.908Z,22.93
2019-04-30T20:10:49.614Z,23.57
2019-04-30T20:13:31.317Z,23.77
2019-04-30T20:15:49.800Z,23.03
2019-04-30T20:18:19.172Z,23.43
2019-04-30T20:20:51.845Z,24.80
2019-04-30T20:23:20.986Z,23.23
2019-04-30T20:25:50.098Z,23.13
2019-04-30T20:28:19.207Z,23.63
2019-04-30T20:30:49.004Z,22.53
2019-04-30T20:33:19.057Z,22.27
2019-04-30T20:35:48.911Z,23.20
2019-04-30T20:38:39.874Z,23.50
2019-04-30T20:41:10.124Z,23.87
2019-04-30T20:43:39.531Z,22.67
2019-04-30T20:46:08.773Z,22.73
2019-04-30T20:48:39.318Z,22.97
2019-04-30T20:51:09.533Z,23.40
2019-04-30T20:53:39.334Z,23.13
2019-04-30T20:56:09.940Z,24.07
2019-04-30T20:58:54.163Z,24.07
2019-04-30T21:01:09.937Z,25.13
2019-04-30T21:03:39.754Z,24.50
2019-04-30T21:06:09.001Z,24.53
2019-04-30T21:08:38.080Z,23.83
2019-04-30T21:11:09.297Z,24.03
2019-04-30T21:13:39.245Z,22.93
2019-04-30T21:16:08.377Z,23.20
2019-04-30T21:18:39.115Z,22.87
2019-04-30T21:21:08.507Z,23.43
2019-04-30T21:23:39.261Z,24.20
2019-04-30T21:26:08.650Z,22.97
2019-04-30T21:28:39.303Z,23.60
2019-04-30T21:31:26.123Z,24.27
2019-04-30T21:34:00.594Z,23.57
2019-04-30T21:36:29.861Z,23.00
2019-04-30T21:38:59.159Z,23.33
2019-04-30T21:41:29.651Z,24.67
2019-04-30T21:43:58.967Z,24.53
2019-04-30T21:46:29.344Z,23.83
2019-04-30T21:48:58.778Z,23.80
2019-04-30T21:51:28.262Z,22.17
2019-04-30T21:53:57.359Z,24.43
2019-04-30T21:56:26.432Z,22.63
2019-04-30T21:58:55.575Z,25.37
2019-04-30T22:01:25.823Z,23.80
2019-04-30T22:03:55.048Z,24.00
2019-04-30T22:06:24.121Z,25.47
2019-04-30T22:08:53.234Z,23.87
2019-04-30T22:11:22.347Z,25.03
2019-04-30T22:13:51.480Z,24.53
2019-04-30T22:16:20.627Z,24.97
2019-04-30T22:18:49.686Z,25.10
2019-04-30T22:21:18.764Z,24.93
2019-04-30T22:23:47.825Z,25.53
2019-04-30T22:26:17.023Z,24.80
2019-04-30T22:28:46.052Z,26.53
2019-04-30T22:31:15.230Z,26.17
2019-04-30T22:33:44.285Z,25.13
2019-04-30T22:36:41.475Z,26.37
2019-04-30T22:39:30.135Z,26.33
2019-04-30T22:42:03.643Z,27.50
2019-04-30T22:44:32.734Z,28.27
2019-04-30T22:47:01.840Z,27.90
2019-04-30T22:49:30.953Z,26.63
2019-04-30T22:52:00.016Z,25.97
2019-04-30T22:54:29.112Z,28.23
2019-04-30T22:56:58.138Z,27.17
2019-04-30T22:59:27.177Z,26.97
2019-04-30T23:02:13.962Z,26.83
2019-04-30T23:04:45.235Z,28.37
2019-04-30T23:07:14.364Z,27.20
2019-04-30T23:09:43.421Z,27.67
2019-04-30T23:12:12.501Z,27.23
2019-04-30T23:14:42.763Z,27.40
2019-04-30T23:17:11.962Z,27.07
2019-04-30T23:19:41.039Z,28.47
2019-04-30T23:22:10.160Z,28.07
2019-04-30T23:24:39.220Z,27.80
2019-04-30T23:27:08.256Z,28.37
2019-04-30T23:29:37.291Z,27.37
2019-04-30T23:32:06.361Z,28.47
2019-04-30T23:34:35.501Z,29.97
2019-04-30T23:37:04.591Z,27.23
2019-04-30T23:39:33.664Z,27.83
2019-04-30T23:42:02.731Z,28.90
2019-04-30T23:44:31.779Z,27.17
2019-04-30T23:47:00.847Z,27.07
2019-04-30T23:49:29.841Z,26.87
2019-04-30T23:51:58.884Z,30.40
2019-04-30T23:54:27.946Z,28.27
2019-04-30T23:56:57.179Z,30.10
2019-04-30T23:59:26.257Z,27.63
